sensor_id;sensor_type;location;lat;lon;timestamp;P1;durP1;ratioP1;P2;durP2;ratioP2
69854;SDS011;57146;48.140;16.304;2022-08-19T00:01:57;6.28;;;0.95;;
69854;SDS011;57146;48.140;16.304;2022-08-19T00:04:26;5.40;;;1.10;;
69854;SDS011;57146;48.140;16.304;2022-08-19T00:06:56;5.50;;;0.90;;
69854;SDS011;57146;48.140;16.304;2022-08-19T00:09:24;6.05;;;1.00;;
69854;SDS011;57146;48.140;16.304;2022-08-19T00:11:52;6.47;;;1.25;;
69854;SDS011;57146;48.140;16.304;2022-08-19T00:14:20;6.32;;;1.00;;
69854;SDS011;57146;48.140;16.304;2022-08-19T00:16:49;4.93;;;0.70;;
69854;SDS011;57146;48.140;16.304;2022-08-19T00:19:16;4.43;;;0.70;;
69854;SDS011;57146;48.140;16.304;2022-08-19T00:21:43;7.03;;;1.05;;
69854;SDS011;57146;48.140;16.304;2022-08-19T00:24:11;6.05;;;1.23;;
69854;SDS011;57146;48.140;16.304;2022-08-19T00:26:41;4.85;;;1.00;;
69854;SDS011;57146;48.140;16.304;2022-08-19T00:29:11;5.30;;;0.97;;
69854;SDS011;57146;48.140;16.304;2022-08-19T00:31:40;5.65;;;1.15;;
69854;SDS011;57146;48.140;16.304;2022-08-19T00:34:07;5.70;;;0.98;;
69854;SDS011;57146;48.140;16.304;2022-08-19T00:36:34;8.52;;;0.90;;
69854;SDS011;57146;48.140;16.304;2022-08-19T00:39:01;5.75;;;1.00;;
69854;SDS011;57146;48.140;16.304;2022-08-19T00:41:28;4.27;;;0.90;;
69854;SDS011;57146;48.140;16.304;2022-08-19T00:44:04;7.47;;;1.42;;
69854;SDS011;57146;48.140;16.304;2022-08-19T00:46:31;5.55;;;1.25;;
69854;SDS011;57146;48.140;16.304;2022-08-19T00:49:00;5.05;;;1.23;;
69854;SDS011;57146;48.140;16.304;2022-08-19T00:51:33;6.80;;;1.05;;
69854;SDS011;57146;48.140;16.304;2022-08-19T00:54:00;6.50;;;1.30;;
69854;SDS011;57146;48.140;16.304;2022-08-19T00:56:30;5.22;;;1.02;;
69854;SDS011;57146;48.140;16.304;2022-08-19T00:58:58;6.85;;;1.40;;
69854;SDS011;57146;48.140;16.304;2022-08-19T01:01:26;5.55;;;1.05;;
69854;SDS011;57146;48.140;16.304;2022-08-19T01:03:53;5.05;;;0.88;;
69854;SDS011;57146;48.140;16.304;2022-08-19T01:06:24;6.00;;;1.20;;
69854;SDS011;57146;48.140;16.304;2022-08-19T01:08:52;5.13;;;1.20;;
69854;SDS011;57146;48.140;16.304;2022-08-19T01:11:20;5.15;;;1.15;;
69854;SDS011;57146;48.140;16.304;2022-08-19T01:13:47;9.05;;;1.40;;
69854;SDS011;57146;48.140;16.304;2022-08-19T01:16:17;7.05;;;1.27;;
69854;SDS011;57146;48.140;16.304;2022-08-19T01:18:46;5.47;;;1.20;;
69854;SDS011;57146;48.140;16.304;2022-08-19T01:21:18;6.78;;;1.40;;
69854;SDS011;57146;48.140;16.304;2022-08-19T01:23:57;6.40;;;1.40;;
69854;SDS011;57146;48.140;16.304;2022-08-19T01:26:24;5.93;;;1.48;;
69854;SDS011;57146;48.140;16.304;2022-08-19T01:28:54;8.57;;;1.58;;
69854;SDS011;57146;48.140;16.304;2022-08-19T01:31:27;7.47;;;1.40;;
69854;SDS011;57146;48.140;16.304;2022-08-19T01:33:58;5.43;;;1.20;;
69854;SDS011;57146;48.140;16.304;2022-08-19T01:36:32;5.93;;;1.20;;
69854;SDS011;57146;48.140;16.304;2022-08-19T01:39:03;6.50;;;1.50;;
69854;SDS011;57146;48.140;16.304;2022-08-19T01:41:33;6.03;;;1.33;;
69854;SDS011;57146;48.140;16.304;2022-08-19T01:44:01;8.47;;;1.50;;
69854;SDS011;57146;48.140;16.304;2022-08-19T01:46:45;6.35;;;1.10;;
69854;SDS011;57146;48.140;16.304;2022-08-19T01:49:15;7.57;;;1.65;;
69854;SDS011;57146;48.140;16.304;2022-08-19T01:51:43;7.15;;;1.40;;
69854;SDS011;57146;48.140;16.304;2022-08-19T01:54:11;5.60;;;1.13;;
69854;SDS011;57146;48.140;16.304;2022-08-19T01:56:53;5.73;;;1.40;;
69854;SDS011;57146;48.140;16.304;2022-08-19T01:59:26;5.90;;;1.40;;
69854;SDS011;57146;48.140;16.304;2022-08-19T02:01:53;6.78;;;1.35;;
69854;SDS011;57146;48.140;16.304;2022-08-19T02:04:19;6.30;;;1.27;;
69854;SDS011;57146;48.140;16.304;2022-08-19T02:06:46;5.43;;;1.42;;
69854;SDS011;57146;48.140;16.304;2022-08-19T02:09:13;6.47;;;1.27;;
69854;SDS011;57146;48.140;16.304;2022-08-19T02:11:40;7.07;;;1.10;;
69854;SDS011;57146;48.140;16.304;2022-08-19T02:14:08;7.07;;;1.30;;
69854;SDS011;57146;48.140;16.304;2022-08-19T02:16:35;6.70;;;1.15;;
69854;SDS011;57146;48.140;16.304;2022-08-19T02:19:04;4.72;;;1.08;;
69854;SDS011;57146;48.140;16.304;2022-08-19T02:21:31;3.97;;;0.90;;
69854;SDS011;57146;48.140;16.304;2022-08-19T02:23:58;6.40;;;1.40;;
69854;SDS011;57146;48.140;16.304;2022-08-19T02:26:25;6.70;;;1.50;;
69854;SDS011;57146;48.140;16.304;2022-08-19T02:28:53;5.85;;;1.40;;
69854;SDS011;57146;48.140;16.304;2022-08-19T02:31:21;6.88;;;1.20;;
69854;SDS011;57146;48.140;16.304;2022-08-19T02:33:51;8.67;;;1.00;;
69854;SDS011;57146;48.140;16.304;2022-08-19T02:36:23;9.75;;;1.58;;
69854;SDS011;57146;48.140;16.304;2022-08-19T02:38:51;8.48;;;0.90;;
69854;SDS011;57146;48.140;16.304;2022-08-19T02:41:25;6.68;;;1.23;;
69854;SDS011;57146;48.140;16.304;2022-08-19T02:43:56;6.53;;;1.20;;
69854;SDS011;57146;48.140;16.304;2022-08-19T02:46:45;7.97;;;1.47;;
69854;SDS011;57146;48.140;16.304;2022-08-19T02:49:13;8.50;;;1.60;;
69854;SDS011;57146;48.140;16.304;2022-08-19T02:51:42;5.78;;;1.20;;
69854;SDS011;57146;48.140;16.304;2022-08-19T02:54:11;4.55;;;1.13;;
69854;SDS011;57146;48.140;16.304;2022-08-19T02:56:40;7.72;;;1.60;;
69854;SDS011;57146;48.140;16.304;2022-08-19T02:59:08;6.40;;;1.40;;
69854;SDS011;57146;48.140;16.304;2022-08-19T03:01:37;6.90;;;1.60;;
69854;SDS011;57146;48.140;16.304;2022-08-19T03:04:06;6.55;;;1.52;;
69854;SDS011;57146;48.140;16.304;2022-08-19T03:06:38;6.60;;;1.50;;
69854;SDS011;57146;48.140;16.304;2022-08-19T03:09:07;6.72;;;1.73;;
69854;SDS011;57146;48.140;16.304;2022-08-19T03:11:34;7.67;;;1.30;;
69854;SDS011;57146;48.140;16.304;2022-08-19T03:14:02;7.05;;;1.30;;
69854;SDS011;57146;48.140;16.304;2022-08-19T03:16:31;6.20;;;1.60;;
69854;SDS011;57146;48.140;16.304;2022-08-19T03:19:00;6.07;;;1.70;;
69854;SDS011;57146;48.140;16.304;2022-08-19T03:21:29;6.05;;;1.33;;
69854;SDS011;57146;48.140;16.304;2022-08-19T03:24:00;8.10;;;1.40;;
69854;SDS011;57146;48.140;16.304;2022-08-19T03:26:29;7.55;;;1.48;;
69854;SDS011;57146;48.140;16.304;2022-08-19T03:28:57;6.30;;;1.30;;
69854;SDS011;57146;48.140;16.304;2022-08-19T03:31:25;6.72;;;1.30;;
69854;SDS011;57146;48.140;16.304;2022-08-19T03:34:15;7.18;;;1.50;;
69854;SDS011;57146;48.140;16.304;2022-08-19T03:36:44;9.17;;;1.70;;
69854;SDS011;57146;48.140;16.304;2022-08-19T03:39:13;7.00;;;1.70;;
69854;SDS011;57146;48.140;16.304;2022-08-19T03:41:42;7.07;;;1.50;;
69854;SDS011;57146;48.140;16.304;2022-08-19T03:44:14;6.57;;;1.42;;
69854;SDS011;57146;48.140;16.304;2022-08-19T03:46:53;7.20;;;1.48;;
69854;SDS011;57146;48.140;16.304;2022-08-19T03:49:23;8.07;;;1.80;;
69854;SDS011;57146;48.140;16.304;2022-08-19T03:51:55;4.35;;;1.50;;
69854;SDS011;57146;48.140;16.304;2022-08-19T03:54:25;7.60;;;2.03;;
69854;SDS011;57146;48.140;16.304;2022-08-19T03:56:53;8.13;;;1.90;;
69854;SDS011;57146;48.140;16.304;2022-08-19T03:59:23;7.22;;;1.98;;
69854;SDS011;57146;48.140;16.304;2022-08-19T04:01:55;6.37;;;2.00;;
69854;SDS011;57146;48.140;16.304;2022-08-19T04:04:24;9.05;;;2.15;;
69854;SDS011;57146;48.140;16.304;2022-08-19T04:06:55;4.90;;;1.80;;
69854;SDS011;57146;48.140;16.304;2022-08-19T04:09:23;7.65;;;1.80;;
69854;SDS011;57146;48.140;16.304;2022-08-19T04:11:51;6.50;;;2.00;;
69854;SDS011;57146;48.140;16.304;2022-08-19T04:14:22;5.73;;;1.80;;
69854;SDS011;57146;48.140;16.304;2022-08-19T04:16:53;9.05;;;2.03;;
69854;SDS011;57146;48.140;16.304;2022-08-19T04:19:20;7.05;;;2.22;;
69854;SDS011;57146;48.140;16.304;2022-08-19T04:21:49;6.18;;;2.72;;
69854;SDS011;57146;48.140;16.304;2022-08-19T04:24:17;7.65;;;2.40;;
69854;SDS011;57146;48.140;16.304;2022-08-19T04:26:45;8.50;;;2.50;;
69854;SDS011;57146;48.140;16.304;2022-08-19T04:29:14;9.25;;;2.50;;
69854;SDS011;57146;48.140;16.304;2022-08-19T04:31:44;9.02;;;2.63;;
69854;SDS011;57146;48.140;16.304;2022-08-19T04:34:13;7.53;;;2.38;;
69854;SDS011;57146;48.140;16.304;2022-08-19T04:36:42;7.00;;;2.47;;
69854;SDS011;57146;48.140;16.304;2022-08-19T04:39:15;7.77;;;2.50;;
69854;SDS011;57146;48.140;16.304;2022-08-19T04:41:43;6.63;;;2.30;;
69854;SDS011;57146;48.140;16.304;2022-08-19T04:44:11;7.03;;;2.70;;
69854;SDS011;57146;48.140;16.304;2022-08-19T04:46:39;8.45;;;2.42;;
69854;SDS011;57146;48.140;16.304;2022-08-19T04:49:20;9.18;;;2.72;;
69854;SDS011;57146;48.140;16.304;2022-08-19T04:51:49;7.77;;;2.53;;
69854;SDS011;57146;48.140;16.304;2022-08-19T04:54:18;8.20;;;2.75;;
69854;SDS011;57146;48.140;16.304;2022-08-19T04:57:04;5.65;;;2.55;;
69854;SDS011;57146;48.140;16.304;2022-08-19T04:59:34;8.05;;;2.58;;
69854;SDS011;57146;48.140;16.304;2022-08-19T05:02:03;10.38;;;3.28;;
69854;SDS011;57146;48.140;16.304;2022-08-19T05:04:31;9.33;;;3.13;;
69854;SDS011;57146;48.140;16.304;2022-08-19T05:06:58;8.45;;;3.47;;
69854;SDS011;57146;48.140;16.304;2022-08-19T05:09:27;8.55;;;3.15;;
69854;SDS011;57146;48.140;16.304;2022-08-19T05:12:14;9.60;;;3.28;;
69854;SDS011;57146;48.140;16.304;2022-08-19T05:14:41;7.20;;;2.83;;
69854;SDS011;57146;48.140;16.304;2022-08-19T05:17:08;7.10;;;3.10;;
69854;SDS011;57146;48.140;16.304;2022-08-19T05:19:55;8.35;;;3.20;;
69854;SDS011;57146;48.140;16.304;2022-08-19T05:22:23;6.47;;;2.85;;
69854;SDS011;57146;48.140;16.304;2022-08-19T05:24:50;7.72;;;3.15;;
69854;SDS011;57146;48.140;16.304;2022-08-19T05:27:37;8.50;;;3.28;;
69854;SDS011;57146;48.140;16.304;2022-08-19T05:30:05;8.10;;;3.07;;
69854;SDS011;57146;48.140;16.304;2022-08-19T05:32:32;8.23;;;3.42;;
69854;SDS011;57146;48.140;16.304;2022-08-19T05:34:59;8.50;;;3.92;;
69854;SDS011;57146;48.140;16.304;2022-08-19T05:37:26;10.13;;;4.25;;
69854;SDS011;57146;48.140;16.304;2022-08-19T05:39:53;11.35;;;4.13;;
69854;SDS011;57146;48.140;16.304;2022-08-19T05:42:22;7.93;;;4.27;;
69854;SDS011;57146;48.140;16.304;2022-08-19T05:44:50;9.15;;;4.63;;
69854;SDS011;57146;48.140;16.304;2022-08-19T05:47:17;9.32;;;4.15;;
69854;SDS011;57146;48.140;16.304;2022-08-19T05:49:45;9.55;;;4.60;;
69854;SDS011;57146;48.140;16.304;2022-08-19T05:52:13;8.48;;;4.82;;
69854;SDS011;57146;48.140;16.304;2022-08-19T05:54:44;10.03;;;4.80;;
69854;SDS011;57146;48.140;16.304;2022-08-19T05:57:16;20.60;;;5.80;;
69854;SDS011;57146;48.140;16.304;2022-08-19T05:59:43;8.80;;;3.58;;
69854;SDS011;57146;48.140;16.304;2022-08-19T06:02:11;8.30;;;3.13;;
69854;SDS011;57146;48.140;16.304;2022-08-19T06:04:38;63.70;;;7.68;;
69854;SDS011;57146;48.140;16.304;2022-08-19T06:07:05;16.50;;;4.23;;
69854;SDS011;57146;48.140;16.304;2022-08-19T06:09:38;11.13;;;5.32;;
69854;SDS011;57146;48.140;16.304;2022-08-19T06:12:05;21.98;;;4.32;;
69854;SDS011;57146;48.140;16.304;2022-08-19T06:14:34;9.20;;;4.78;;
69854;SDS011;57146;48.140;16.304;2022-08-19T06:17:07;12.85;;;4.97;;
69854;SDS011;57146;48.140;16.304;2022-08-19T06:19:34;18.50;;;4.50;;
69854;SDS011;57146;48.140;16.304;2022-08-19T06:22:06;10.93;;;5.20;;
69854;SDS011;57146;48.140;16.304;2022-08-19T06:24:34;11.82;;;4.97;;
69854;SDS011;57146;48.140;16.304;2022-08-19T06:27:02;9.93;;;5.53;;
69854;SDS011;57146;48.140;16.304;2022-08-19T06:29:30;8.80;;;5.25;;
69854;SDS011;57146;48.140;16.304;2022-08-19T06:31:59;8.80;;;5.17;;
69854;SDS011;57146;48.140;16.304;2022-08-19T06:34:28;13.48;;;5.60;;
69854;SDS011;57146;48.140;16.304;2022-08-19T06:36:58;11.15;;;5.35;;
69854;SDS011;57146;48.140;16.304;2022-08-19T06:39:29;46.90;;;6.78;;
69854;SDS011;57146;48.140;16.304;2022-08-19T06:42:00;10.43;;;5.05;;
69854;SDS011;57146;48.140;16.304;2022-08-19T06:44:30;7.77;;;3.90;;
69854;SDS011;57146;48.140;16.304;2022-08-19T06:46:59;19.83;;;5.35;;
69854;SDS011;57146;48.140;16.304;2022-08-19T06:49:35;10.00;;;4.78;;
69854;SDS011;57146;48.140;16.304;2022-08-19T06:52:02;8.57;;;4.63;;
69854;SDS011;57146;48.140;16.304;2022-08-19T06:54:30;9.38;;;4.20;;
69854;SDS011;57146;48.140;16.304;2022-08-19T06:57:06;7.67;;;4.30;;
69854;SDS011;57146;48.140;16.304;2022-08-19T06:59:33;8.23;;;4.20;;
69854;SDS011;57146;48.140;16.304;2022-08-19T07:02:02;9.02;;;4.07;;
69854;SDS011;57146;48.140;16.304;2022-08-19T07:04:31;7.20;;;3.50;;
69854;SDS011;57146;48.140;16.304;2022-08-19T07:07:00;7.45;;;3.97;;
69854;SDS011;57146;48.140;16.304;2022-08-19T07:09:47;6.77;;;3.97;;
69854;SDS011;57146;48.140;16.304;2022-08-19T07:12:26;7.38;;;3.38;;
69854;SDS011;57146;48.140;16.304;2022-08-19T07:14:57;7.20;;;3.80;;
69854;SDS011;57146;48.140;16.304;2022-08-19T07:17:25;8.07;;;3.63;;
69854;SDS011;57146;48.140;16.304;2022-08-19T07:19:52;7.25;;;3.30;;
69854;SDS011;57146;48.140;16.304;2022-08-19T07:22:20;5.80;;;3.30;;
69854;SDS011;57146;48.140;16.304;2022-08-19T07:24:49;5.47;;;2.90;;
69854;SDS011;57146;48.140;16.304;2022-08-19T07:27:17;7.03;;;3.20;;
69854;SDS011;57146;48.140;16.304;2022-08-19T07:29:50;8.32;;;3.10;;
69854;SDS011;57146;48.140;16.304;2022-08-19T07:32:23;6.65;;;3.40;;
69854;SDS011;57146;48.140;16.304;2022-08-19T07:34:51;7.40;;;3.30;;
69854;SDS011;57146;48.140;16.304;2022-08-19T07:37:18;4.93;;;2.90;;
69854;SDS011;57146;48.140;16.304;2022-08-19T07:39:44;6.00;;;3.10;;
69854;SDS011;57146;48.140;16.304;2022-08-19T07:42:11;7.60;;;3.30;;
69854;SDS011;57146;48.140;16.304;2022-08-19T07:44:39;8.60;;;3.47;;
69854;SDS011;57146;48.140;16.304;2022-08-19T07:47:07;5.43;;;3.03;;
69854;SDS011;57146;48.140;16.304;2022-08-19T07:49:54;6.63;;;3.15;;
69854;SDS011;57146;48.140;16.304;2022-08-19T07:52:20;6.72;;;2.80;;
69854;SDS011;57146;48.140;16.304;2022-08-19T07:54:48;5.63;;;3.40;;
69854;SDS011;57146;48.140;16.304;2022-08-19T07:57:15;7.80;;;2.97;;
69854;SDS011;57146;48.140;16.304;2022-08-19T07:59:43;6.07;;;2.80;;
69854;SDS011;57146;48.140;16.304;2022-08-19T08:02:09;6.28;;;3.15;;
69854;SDS011;57146;48.140;16.304;2022-08-19T08:04:36;6.03;;;2.78;;
69854;SDS011;57146;48.140;16.304;2022-08-19T08:07:04;6.93;;;3.20;;
69854;SDS011;57146;48.140;16.304;2022-08-19T08:09:35;6.80;;;3.20;;
69854;SDS011;57146;48.140;16.304;2022-08-19T08:12:08;6.93;;;3.50;;
69854;SDS011;57146;48.140;16.304;2022-08-19T08:15:02;6.95;;;3.00;;
69854;SDS011;57146;48.140;16.304;2022-08-19T08:17:38;6.95;;;2.80;;
69854;SDS011;57146;48.140;16.304;2022-08-19T08:20:18;6.35;;;3.05;;
69854;SDS011;57146;48.140;16.304;2022-08-19T08:22:46;8.55;;;3.20;;
69854;SDS011;57146;48.140;16.304;2022-08-19T08:25:15;6.97;;;3.17;;
69854;SDS011;57146;48.140;16.304;2022-08-19T08:27:46;9.52;;;3.30;;
69854;SDS011;57146;48.140;16.304;2022-08-19T08:30:20;31.05;;;4.65;;
69854;SDS011;57146;48.140;16.304;2022-08-19T08:32:50;7.18;;;2.60;;
69854;SDS011;57146;48.140;16.304;2022-08-19T08:35:20;8.63;;;3.00;;
69854;SDS011;57146;48.140;16.304;2022-08-19T08:37:48;5.73;;;2.77;;
69854;SDS011;57146;48.140;16.304;2022-08-19T08:40:30;5.38;;;2.70;;
69854;SDS011;57146;48.140;16.304;2022-08-19T08:43:07;5.80;;;2.88;;
69854;SDS011;57146;48.140;16.304;2022-08-19T08:45:47;4.80;;;2.78;;
69854;SDS011;57146;48.140;16.304;2022-08-19T08:48:20;6.85;;;2.50;;
69854;SDS011;57146;48.140;16.304;2022-08-19T08:51:14;5.57;;;2.83;;
69854;SDS011;57146;48.140;16.304;2022-08-19T08:53:46;4.72;;;2.53;;
69854;SDS011;57146;48.140;16.304;2022-08-19T08:56:21;7.15;;;3.03;;
69854;SDS011;57146;48.140;16.304;2022-08-19T08:58:51;5.18;;;2.80;;
69854;SDS011;57146;48.140;16.304;2022-08-19T09:01:24;6.97;;;2.72;;
69854;SDS011;57146;48.140;16.304;2022-08-19T09:03:56;5.13;;;2.63;;
69854;SDS011;57146;48.140;16.304;2022-08-19T09:06:36;6.00;;;2.83;;
69854;SDS011;57146;48.140;16.304;2022-08-19T09:09:13;6.47;;;2.95;;
69854;SDS011;57146;48.140;16.304;2022-08-19T09:14:38;5.15;;;2.80;;
69854;SDS011;57146;48.140;16.304;2022-08-19T09:17:18;7.13;;;2.97;;
69854;SDS011;57146;48.140;16.304;2022-08-19T09:19:53;5.70;;;2.92;;
69854;SDS011;57146;48.140;16.304;2022-08-19T09:22:21;5.28;;;3.10;;
69854;SDS011;57146;48.140;16.304;2022-08-19T09:24:52;5.47;;;3.15;;
69854;SDS011;57146;48.140;16.304;2022-08-19T09:27:21;7.72;;;3.00;;
69854;SDS011;57146;48.140;16.304;2022-08-19T09:30:09;6.50;;;2.83;;
69854;SDS011;57146;48.140;16.304;2022-08-19T09:32:39;6.78;;;3.00;;
69854;SDS011;57146;48.140;16.304;2022-08-19T09:35:06;7.78;;;3.50;;
69854;SDS011;57146;48.140;16.304;2022-08-19T09:37:34;6.85;;;2.88;;
69854;SDS011;57146;48.140;16.304;2022-08-19T09:40:01;6.25;;;3.10;;
69854;SDS011;57146;48.140;16.304;2022-08-19T09:42:28;5.40;;;3.20;;
69854;SDS011;57146;48.140;16.304;2022-08-19T09:45:01;5.93;;;3.25;;
69854;SDS011;57146;48.140;16.304;2022-08-19T09:47:30;7.72;;;3.50;;
69854;SDS011;57146;48.140;16.304;2022-08-19T09:49:57;6.22;;;3.40;;
69854;SDS011;57146;48.140;16.304;2022-08-19T09:52:24;5.68;;;3.20;;
69854;SDS011;57146;48.140;16.304;2022-08-19T09:54:58;7.47;;;3.00;;
69854;SDS011;57146;48.140;16.304;2022-08-19T09:57:25;6.47;;;3.60;;
69854;SDS011;57146;48.140;16.304;2022-08-19T09:59:52;7.35;;;3.55;;
69854;SDS011;57146;48.140;16.304;2022-08-19T10:02:19;5.97;;;3.50;;
69854;SDS011;57146;48.140;16.304;2022-08-19T10:04:47;6.93;;;3.25;;
69854;SDS011;57146;48.140;16.304;2022-08-19T10:07:14;7.87;;;3.37;;
69854;SDS011;57146;48.140;16.304;2022-08-19T10:09:43;7.28;;;3.20;;
69854;SDS011;57146;48.140;16.304;2022-08-19T10:12:12;7.07;;;3.20;;
69854;SDS011;57146;48.140;16.304;2022-08-19T10:14:43;5.35;;;3.13;;
69854;SDS011;57146;48.140;16.304;2022-08-19T10:17:10;8.05;;;3.30;;
69854;SDS011;57146;48.140;16.304;2022-08-19T10:19:47;6.63;;;2.93;;
69854;SDS011;57146;48.140;16.304;2022-08-19T10:22:21;7.90;;;3.10;;
69854;SDS011;57146;48.140;16.304;2022-08-19T10:24:51;7.82;;;3.58;;
69854;SDS011;57146;48.140;16.304;2022-08-19T10:27:18;9.02;;;3.47;;
69854;SDS011;57146;48.140;16.304;2022-08-19T10:29:45;7.35;;;3.55;;
69854;SDS011;57146;48.140;16.304;2022-08-19T10:32:12;6.73;;;3.37;;
69854;SDS011;57146;48.140;16.304;2022-08-19T10:34:39;8.07;;;3.17;;
69854;SDS011;57146;48.140;16.304;2022-08-19T10:37:15;6.95;;;3.55;;
69854;SDS011;57146;48.140;16.304;2022-08-19T10:39:54;6.25;;;3.15;;
69854;SDS011;57146;48.140;16.304;2022-08-19T10:42:21;9.95;;;3.65;;
69854;SDS011;57146;48.140;16.304;2022-08-19T10:44:48;6.97;;;3.00;;
69854;SDS011;57146;48.140;16.304;2022-08-19T10:47:17;8.88;;;3.50;;
69854;SDS011;57146;48.140;16.304;2022-08-19T10:49:51;10.68;;;3.85;;
69854;SDS011;57146;48.140;16.304;2022-08-19T10:52:21;8.35;;;3.40;;
69854;SDS011;57146;48.140;16.304;2022-08-19T10:54:58;9.45;;;3.60;;
69854;SDS011;57146;48.140;16.304;2022-08-19T10:57:31;8.33;;;3.30;;
69854;SDS011;57146;48.140;16.304;2022-08-19T11:00:19;7.15;;;3.13;;
69854;SDS011;57146;48.140;16.304;2022-08-19T11:02:47;8.57;;;3.08;;
69854;SDS011;57146;48.140;16.304;2022-08-19T11:05:14;8.00;;;2.67;;
69854;SDS011;57146;48.140;16.304;2022-08-19T11:07:41;10.60;;;2.80;;
69854;SDS011;57146;48.140;16.304;2022-08-19T11:10:10;6.93;;;2.90;;
69854;SDS011;57146;48.140;16.304;2022-08-19T11:12:43;7.68;;;2.60;;
69854;SDS011;57146;48.140;16.304;2022-08-19T11:15:11;8.45;;;2.63;;
69854;SDS011;57146;48.140;16.304;2022-08-19T11:17:38;8.75;;;2.63;;
69854;SDS011;57146;48.140;16.304;2022-08-19T11:20:05;9.63;;;2.80;;
69854;SDS011;57146;48.140;16.304;2022-08-19T11:22:32;7.67;;;2.33;;
69854;SDS011;57146;48.140;16.304;2022-08-19T11:25:07;6.85;;;2.70;;
69854;SDS011;57146;48.140;16.304;2022-08-19T11:27:40;8.70;;;2.97;;
69854;SDS011;57146;48.140;16.304;2022-08-19T11:30:07;9.05;;;2.70;;
69854;SDS011;57146;48.140;16.304;2022-08-19T11:32:39;12.25;;;3.05;;
69854;SDS011;57146;48.140;16.304;2022-08-19T11:35:14;11.23;;;2.93;;
69854;SDS011;57146;48.140;16.304;2022-08-19T11:37:40;10.27;;;2.40;;
69854;SDS011;57146;48.140;16.304;2022-08-19T11:40:07;10.32;;;2.10;;
69854;SDS011;57146;48.140;16.304;2022-08-19T11:42:35;6.85;;;2.08;;
69854;SDS011;57146;48.140;16.304;2022-08-19T11:45:02;8.70;;;1.90;;
69854;SDS011;57146;48.140;16.304;2022-08-19T11:47:29;8.83;;;2.10;;
69854;SDS011;57146;48.140;16.304;2022-08-19T11:49:56;7.82;;;2.10;;
69854;SDS011;57146;48.140;16.304;2022-08-19T11:52:23;10.95;;;2.25;;
69854;SDS011;57146;48.140;16.304;2022-08-19T11:54:50;12.05;;;2.30;;
69854;SDS011;57146;48.140;16.304;2022-08-19T11:57:17;9.85;;;2.42;;
69854;SDS011;57146;48.140;16.304;2022-08-19T11:59:48;10.00;;;2.20;;
69854;SDS011;57146;48.140;16.304;2022-08-19T12:02:18;11.63;;;2.70;;
69854;SDS011;57146;48.140;16.304;2022-08-19T12:04:46;12.77;;;2.40;;
69854;SDS011;57146;48.140;16.304;2022-08-19T12:07:13;13.02;;;2.38;;
69854;SDS011;57146;48.140;16.304;2022-08-19T12:09:40;10.23;;;2.13;;
69854;SDS011;57146;48.140;16.304;2022-08-19T12:12:08;9.73;;;2.63;;
69854;SDS011;57146;48.140;16.304;2022-08-19T12:14:36;9.50;;;2.60;;
69854;SDS011;57146;48.140;16.304;2022-08-19T12:17:03;11.82;;;2.80;;
69854;SDS011;57146;48.140;16.304;2022-08-19T12:19:30;10.57;;;2.60;;
69854;SDS011;57146;48.140;16.304;2022-08-19T12:22:00;14.25;;;2.78;;
69854;SDS011;57146;48.140;16.304;2022-08-19T12:24:29;12.43;;;2.70;;
69854;SDS011;57146;48.140;16.304;2022-08-19T12:26:58;12.05;;;2.63;;
69854;SDS011;57146;48.140;16.304;2022-08-19T12:29:29;14.10;;;3.17;;
69854;SDS011;57146;48.140;16.304;2022-08-19T12:31:59;11.32;;;3.40;;
69854;SDS011;57146;48.140;16.304;2022-08-19T12:34:27;10.27;;;3.10;;
69854;SDS011;57146;48.140;16.304;2022-08-19T12:36:55;10.97;;;2.80;;
69854;SDS011;57146;48.140;16.304;2022-08-19T12:39:24;14.65;;;3.20;;
69854;SDS011;57146;48.140;16.304;2022-08-19T12:41:52;11.18;;;3.42;;
69854;SDS011;57146;48.140;16.304;2022-08-19T12:44:21;10.07;;;3.00;;
69854;SDS011;57146;48.140;16.304;2022-08-19T12:46:55;9.23;;;2.88;;
69854;SDS011;57146;48.140;16.304;2022-08-19T12:49:23;11.43;;;3.10;;
69854;SDS011;57146;48.140;16.304;2022-08-19T12:52:10;10.55;;;3.35;;
69854;SDS011;57146;48.140;16.304;2022-08-19T12:54:39;12.57;;;3.10;;
69854;SDS011;57146;48.140;16.304;2022-08-19T12:57:06;10.35;;;3.17;;
69854;SDS011;57146;48.140;16.304;2022-08-19T12:59:35;8.65;;;2.78;;
69854;SDS011;57146;48.140;16.304;2022-08-19T13:02:05;10.00;;;2.73;;
69854;SDS011;57146;48.140;16.304;2022-08-19T13:04:33;7.13;;;2.60;;
69854;SDS011;57146;48.140;16.304;2022-08-19T13:07:02;10.80;;;2.70;;
69854;SDS011;57146;48.140;16.304;2022-08-19T13:09:29;9.30;;;2.25;;
69854;SDS011;57146;48.140;16.304;2022-08-19T13:11:56;8.40;;;2.90;;
69854;SDS011;57146;48.140;16.304;2022-08-19T13:14:23;12.70;;;2.93;;
69854;SDS011;57146;48.140;16.304;2022-08-19T13:16:52;11.23;;;2.70;;
69854;SDS011;57146;48.140;16.304;2022-08-19T13:19:19;12.90;;;2.55;;
69854;SDS011;57146;48.140;16.304;2022-08-19T13:21:48;10.65;;;3.00;;
69854;SDS011;57146;48.140;16.304;2022-08-19T13:24:25;8.70;;;2.78;;
69854;SDS011;57146;48.140;16.304;2022-08-19T13:27:00;13.07;;;2.90;;
69854;SDS011;57146;48.140;16.304;2022-08-19T13:29:30;13.20;;;2.75;;
69854;SDS011;57146;48.140;16.304;2022-08-19T13:31:57;12.45;;;3.03;;
69854;SDS011;57146;48.140;16.304;2022-08-19T13:34:30;10.48;;;2.70;;
69854;SDS011;57146;48.140;16.304;2022-08-19T13:36:59;10.43;;;3.70;;
69854;SDS011;57146;48.140;16.304;2022-08-19T13:39:27;10.80;;;2.90;;
69854;SDS011;57146;48.140;16.304;2022-08-19T13:41:53;8.35;;;2.80;;
69854;SDS011;57146;48.140;16.304;2022-08-19T13:44:20;15.02;;;3.00;;
69854;SDS011;57146;48.140;16.304;2022-08-19T13:46:48;8.38;;;2.45;;
69854;SDS011;57146;48.140;16.304;2022-08-19T13:49:19;8.82;;;2.80;;
69854;SDS011;57146;48.140;16.304;2022-08-19T13:51:47;9.13;;;2.90;;
69854;SDS011;57146;48.140;16.304;2022-08-19T13:54:14;8.43;;;2.50;;
69854;SDS011;57146;48.140;16.304;2022-08-19T13:56:42;11.35;;;2.92;;
69854;SDS011;57146;48.140;16.304;2022-08-19T13:59:11;6.65;;;2.08;;
69854;SDS011;57146;48.140;16.304;2022-08-19T14:01:38;10.23;;;2.30;;
69854;SDS011;57146;48.140;16.304;2022-08-19T14:04:06;8.20;;;2.07;;
69854;SDS011;57146;48.140;16.304;2022-08-19T14:06:33;12.40;;;2.53;;
69854;SDS011;57146;48.140;16.304;2022-08-19T14:09:01;12.00;;;2.55;;
69854;SDS011;57146;48.140;16.304;2022-08-19T14:11:29;9.38;;;2.13;;
69854;SDS011;57146;48.140;16.304;2022-08-19T14:13:56;9.52;;;2.10;;
69854;SDS011;57146;48.140;16.304;2022-08-19T14:16:23;7.93;;;2.07;;
69854;SDS011;57146;48.140;16.304;2022-08-19T14:18:50;7.70;;;1.77;;
69854;SDS011;57146;48.140;16.304;2022-08-19T14:21:19;9.32;;;1.98;;
69854;SDS011;57146;48.140;16.304;2022-08-19T14:23:48;11.95;;;2.42;;
69854;SDS011;57146;48.140;16.304;2022-08-19T14:26:16;7.43;;;1.50;;
69854;SDS011;57146;48.140;16.304;2022-08-19T14:28:44;11.30;;;2.13;;
69854;SDS011;57146;48.140;16.304;2022-08-19T14:31:13;9.60;;;1.60;;
69854;SDS011;57146;48.140;16.304;2022-08-19T14:33:42;10.52;;;1.60;;
69854;SDS011;57146;48.140;16.304;2022-08-19T14:36:09;10.38;;;1.98;;
69854;SDS011;57146;48.140;16.304;2022-08-19T14:38:36;8.98;;;1.70;;
69854;SDS011;57146;48.140;16.304;2022-08-19T14:41:07;6.07;;;1.00;;
69854;SDS011;57146;48.140;16.304;2022-08-19T14:43:35;6.28;;;1.10;;
69854;SDS011;57146;48.140;16.304;2022-08-19T14:46:02;8.90;;;1.10;;
69854;SDS011;57146;48.140;16.304;2022-08-19T14:48:29;7.88;;;1.15;;
69854;SDS011;57146;48.140;16.304;2022-08-19T14:50:56;7.57;;;0.85;;